Time;durP1;ratioP1;P1;durP2;ratioP2;P2;SDS_P1;SDS_P2;PMS_P1;PMS_P2;Temp;Humidity;BMP_temperature;BMP_pressure;BME280_temperature;BME280_humidity;BME280_pressure;Samples;Min_cycle;Max_cycle;Signal;HPM_P1;HPM_P2
2023/05/10 00:02:17;;;;;;;15.30;7.57;;;10.40;48.80;;;;;;5104735;28;20035;-83
2023/05/10 00:04:42;;;;;;;16.65;7.85;;;10.40;48.20;;;;;;5094774;28;20439;-84
2023/05/10 00:07:10;;;;;;;15.38;7.13;;;10.40;48.40;;;;;;5092357;28;20426;-84
2023/05/10 00:09:35;;;;;;;16.67;7.50;;;10.30;48.40;;;;;;5092861;28;20024;-84
2023/05/10 00:12:01;;;;;;;23.27;7.25;;;10.30;48.50;;;;;;5098584;28;20024;-86
2023/05/10 00:14:27;;;;;;;15.52;7.57;;;10.30;48.70;;;;;;5102374;28;20389;-85
2023/05/10 00:16:53;;;;;;;16.10;7.28;;;10.30;49.00;;;;;;5091253;28;20377;-87
2023/05/10 00:19:19;;;;;;;13.80;7.28;;;10.30;49.10;;;;;;5103263;28;20035;-86
2023/05/10 00:21:45;;;;;;;12.25;6.93;;;10.30;49.20;;;;;;5103498;28;20045;-83
2023/05/10 00:24:10;;;;;;;11.75;7.05;;;10.30;49.50;;;;;;5086174;28;20080;-85
2023/05/10 00:26:36;;;;;;;12.27;6.32;;;10.30;49.50;;;;;;5120305;28;20012;-84
2023/05/10 00:29:02;;;;;;;13.50;6.60;;;10.20;48.90;;;;;;5105953;28;20479;-85
2023/05/10 00:31:28;;;;;;;11.90;7.57;;;10.30;48.70;;;;;;5097757;28;20050;-86
2023/05/10 00:33:54;;;;;;;12.63;6.38;;;10.20;48.80;;;;;;5078855;28;20032;-86
2023/05/10 00:36:20;;;;;;;12.57;6.85;;;10.20;48.70;;;;;;5112786;28;20447;-84
2023/05/10 00:38:46;;;;;;;9.23;6.85;;;10.20;48.70;;;;;;5096586;28;20051;-86
2023/05/10 00:41:12;;;;;;;13.07;6.63;;;10.20;48.60;;;;;;5117785;28;20527;-83
2023/05/10 00:43:38;;;;;;;13.25;7.32;;;10.20;48.50;;;;;;5108524;28;20495;-85
2023/05/10 00:46:05;;;;;;;10.98;6.32;;;10.20;48.50;;;;;;5097840;28;20030;-85
2023/05/10 00:48:31;;;;;;;19.48;7.50;;;10.20;49.20;;;;;;5110949;28;20038;-84
2023/05/10 00:50:57;;;;;;;11.90;6.60;;;10.20;49.50;;;;;;5111955;28;20069;-85
2023/05/10 00:53:24;;;;;;;16.25;7.10;;;10.20;49.30;;;;;;5108923;28;20484;-85
2023/05/10 00:55:50;;;;;;;14.30;6.47;;;10.20;49.20;;;;;;5109470;28;20563;-85
2023/05/10 00:58:17;;;;;;;14.80;6.88;;;10.20;48.80;;;;;;5105076;28;20430;-86
2023/05/10 01:00:46;;;;;;;18.25;6.45;;;10.20;48.20;;;;;;5104719;28;20040;-87
2023/05/10 01:03:12;;;;;;;10.38;6.60;;;10.20;48.40;;;;;;5083368;28;20023;-87
2023/05/10 01:05:38;;;;;;;8.73;5.97;;;10.20;48.20;;;;;;5104505;28;20070;-85
2023/05/10 01:08:04;;;;;;;11.48;6.40;;;10.20;48.40;;;;;;5099769;28;20020;-87
2023/05/10 01:10:31;;;;;;;19.20;7.25;;;10.20;48.50;;;;;;5103746;28;20028;-86
2023/05/10 01:12:59;;;;;;;11.82;5.50;;;10.20;49.20;;;;;;5113255;28;20381;-85
2023/05/10 01:15:25;;;;;;;;;;;10.20;48.50;;;;;;5107281;28;20475;-84
2023/05/10 01:17:52;;;;;;;10.18;5.90;;;10.20;48.30;;;;;;5089327;28;19911;-86
2023/05/10 01:20:18;;;;;;;8.35;5.85;;;10.20;48.70;;;;;;5112187;28;20027;-84
2023/05/10 01:23:14;;;;;;;14.70;6.85;;;10.10;48.80;;;;;;5111612;28;20019;-85
2023/05/10 01:26:05;;;;;;;10.90;5.88;;;10.20;48.80;;;;;;5104968;28;20012;-84
2023/05/10 01:28:50;;;;;;;12.25;6.10;;;10.20;48.60;;;;;;5093262;28;20117;-84
2023/05/10 01:32:01;;;;;;;15.65;5.80;;;10.10;48.60;;;;;;5106803;28;20479;-85
2023/05/10 01:34:56;;;;;;;10.98;5.63;;;10.10;48.20;;;;;;5076354;28;20063;-84
2023/05/10 01:37:33;;;;;;;10.98;5.78;;;10.10;48.30;;;;;;5113541;28;20028;-85
2023/05/10 01:40:18;;;;;;;10.90;6.60;;;10.10;48.20;;;;;;5125868;28;20102;-84
2023/05/10 01:42:53;;;;;;;8.65;5.53;;;10.10;48.20;;;;;;5105259;28;20024;-85
2023/05/10 01:45:31;;;;;;;11.75;5.90;;;10.10;48.10;;;;;;5089653;28;20024;-84
2023/05/10 01:48:10;;;;;;;9.75;6.53;;;10.10;48.00;;;;;;5104036;28;20105;-85
2023/05/10 01:50:39;;;;;;;10.13;5.90;;;10.10;48.00;;;;;;5079824;28;20031;-85
2023/05/10 01:53:08;;;;;;;8.98;5.60;;;10.10;48.10;;;;;;5087646;28;20024;-84
2023/05/10 01:55:41;;;;;;;11.40;5.60;;;10.10;48.10;;;;;;5096984;28;20036;-84
2023/05/10 01:58:31;;;;;;;9.02;5.53;;;10.10;48.20;;;;;;5097460;28;20016;-83
2023/05/10 02:01:01;;;;;;;8.95;5.03;;;10.10;48.30;;;;;;5083586;28;20067;-84
2023/05/10 02:03:29;;;;;;;11.85;5.13;;;10.10;48.50;;;;;;5094944;28;20499;-83
2023/05/10 02:05:57;;;;;;;9.23;4.95;;;10.10;48.50;;;;;;5098163;28;20022;-83
2023/05/10 02:08:24;;;;;;;10.35;5.35;;;10.10;48.70;;;;;;5094322;28;20046;-84
2023/05/10 02:10:52;;;;;;;9.65;4.82;;;10.10;48.70;;;;;;5097060;28;20020;-84
2023/05/10 02:13:21;;;;;;;13.23;5.88;;;10.10;48.70;;;;;;5103696;28;20064;-85
2023/05/10 02:15:51;;;;;;;9.43;5.35;;;10.20;49.00;;;;;;5080064;28;20106;-87
2023/05/10 02:18:18;;;;;;;8.30;5.38;;;10.10;49.10;;;;;;5117391;28;20020;-87
2023/05/10 02:20:46;;;;;;;16.02;7.10;;;10.10;48.90;;;;;;5093743;28;20015;-83
2023/05/10 02:23:13;;;;;;;21.63;5.30;;;10.10;48.80;;;;;;5107385;28;20031;-84
2023/05/10 02:25:41;;;;;;;9.48;5.10;;;10.20;48.80;;;;;;5097882;28;20020;-84
2023/05/10 02:28:08;;;;;;;11.73;5.43;;;10.10;48.40;;;;;;5108671;28;20023;-85
2023/05/10 02:30:35;;;;;;;12.32;5.22;;;10.20;48.30;;;;;;5091482;28;20024;-84
2023/05/10 02:33:03;;;;;;;11.55;6.03;;;10.20;48.30;;;;;;5096184;28;20050;-85
2023/05/10 02:35:30;;;;;;;11.05;5.50;;;10.20;48.20;;;;;;5112927;28;20016;-85
2023/05/10 02:37:59;;;;;;;10.10;5.73;;;10.20;48.20;;;;;;5093409;28;20047;-83
2023/05/10 02:40:27;;;;;;;13.57;6.03;;;10.20;48.30;;;;;;5083643;28;20503;-84
2023/05/10 02:42:56;;;;;;;12.32;5.22;;;10.30;48.20;;;;;;5101683;28;20020;-85
2023/05/10 02:45:26;;;;;;;13.35;6.20;;;10.20;48.20;;;;;;5105350;28;20107;-85
2023/05/10 02:47:52;;;;;;;15.05;5.93;;;10.30;48.20;;;;;;5097654;28;20045;-83
2023/05/10 02:50:19;;;;;;;11.57;5.97;;;10.30;48.40;;;;;;5096459;28;20099;-83
2023/05/10 02:52:51;;;;;;;6.40;5.13;;;10.30;48.30;;;;;;5075828;28;20096;-85
2023/05/10 02:55:20;;;;;;;10.15;4.97;;;10.30;48.50;;;;;;5094374;28;20481;-84
2023/05/10 02:57:51;;;;;;;7.97;4.93;;;10.30;48.40;;;;;;5094785;28;20044;-84
2023/05/10 03:00:17;;;;;;;10.70;5.88;;;10.30;48.60;;;;;;5101839;28;20043;-84
2023/05/10 03:02:43;;;;;;;12.93;5.47;;;10.40;48.40;;;;;;5100365;28;20032;-84
2023/05/10 03:05:09;;;;;;;12.63;5.60;;;10.40;48.30;;;;;;5094841;28;20028;-84
2023/05/10 03:07:36;;;;;;;9.57;4.85;;;10.40;48.30;;;;;;5097946;28;20016;-85
2023/05/10 03:10:02;;;;;;;7.50;4.85;;;10.40;48.30;;;;;;5099279;28;20052;-84
2023/05/10 03:12:55;;;;;;;7.55;4.88;;;10.40;48.30;;;;;;5106813;28;20024;-85
2023/05/10 03:15:57;;;;;;;12.05;5.55;;;10.50;48.10;;;;;;5117319;28;20091;-85
2023/05/10 03:18:37;;;;;;;6.10;4.35;;;10.50;48.20;;;;;;5122038;28;20028;-86
2023/05/10 03:21:05;;;;;;;10.10;5.47;;;10.50;48.10;;;;;;5109047;28;20036;-86
2023/05/10 03:23:45;;;;;;;13.35;6.13;;;10.50;48.10;;;;;;5084249;28;20115;-85
2023/05/10 03:26:36;;;;;;;8.52;5.05;;;10.60;48.00;;;;;;5098974;28;20024;-85
2023/05/10 03:29:03;;;;;;;11.73;5.35;;;10.50;48.20;;;;;;5093914;28;20098;-86
2023/05/10 03:31:28;;;;;;;13.93;4.47;;;10.60;48.10;;;;;;5083659;28;20026;-87
2023/05/10 03:33:54;;;;;;;8.25;4.95;;;10.60;48.30;;;;;;5103007;28;20463;-85
2023/05/10 03:36:20;;;;;;;8.02;5.53;;;10.70;48.30;;;;;;5088604;28;20020;-84
2023/05/10 03:38:46;;;;;;;9.77;4.88;;;10.70;48.20;;;;;;5110959;28;20016;-85
2023/05/10 03:41:12;;;;;;;8.20;4.97;;;10.70;48.20;;;;;;5110663;28;20035;-86
2023/05/10 03:43:38;;;;;;;11.52;4.75;;;10.80;48.10;;;;;;5086915;28;20020;-86
2023/05/10 03:46:05;;;;;;;9.77;4.90;;;10.80;47.80;;;;;;5113253;28;20020;-85
2023/05/10 03:48:32;;;;;;;10.00;4.85;;;10.80;47.90;;;;;;5078407;28;20534;-85
2023/05/10 03:50:58;;;;;;;8.23;4.85;;;10.90;47.70;;;;;;5095246;28;20568;-87
2023/05/10 03:53:24;;;;;;;8.82;4.88;;;11.00;47.80;;;;;;5093042;28;20068;-86
2023/05/10 03:55:50;;;;;;;10.75;5.50;;;11.00;47.80;;;;;;5112002;28;20523;-86
2023/05/10 03:58:16;;;;;;;9.52;5.00;;;11.00;47.60;;;;;;5107939;28;20024;-87
2023/05/10 04:00:44;;;;;;;6.35;4.60;;;11.10;47.70;;;;;;5106734;28;20413;-86
2023/05/10 04:03:11;;;;;;;11.13;4.40;;;11.20;47.70;;;;;;5066788;28;20064;-87
2023/05/10 04:05:37;;;;;;;9.35;4.85;;;11.20;47.60;;;;;;5051140;28;20080;-85
2023/05/10 04:08:03;;;;;;;11.55;4.88;;;11.30;47.40;;;;;;5060396;28;20048;-87
2023/05/10 04:10:29;;;;;;;7.68;4.80;;;11.30;47.50;;;;;;5062320;28;20487;-85
2023/05/10 04:12:55;;;;;;;9.30;5.40;;;11.30;47.40;;;;;;5062685;28;20032;-86
2023/05/10 04:15:21;;;;;;;12.10;5.75;;;11.40;47.60;;;;;;5063006;28;20127;-85
2023/05/10 04:17:47;;;;;;;12.35;5.50;;;11.40;47.40;;;;;;5057628;28;20601;-85
2023/05/10 04:20:13;;;;;;;9.48;4.97;;;11.40;47.50;;;;;;5066866;28;20080;-85
2023/05/10 04:22:39;;;;;;;14.50;5.15;;;11.50;47.10;;;;;;5062348;28;20044;-86
2023/05/10 04:25:06;;;;;;;10.75;4.85;;;11.60;47.00;;;;;;5049997;28;20434;-86
2023/05/10 04:27:32;;;;;;;9.30;5.40;;;11.70;46.70;;;;;;5063670;28;20052;-87
2023/05/10 04:29:59;;;;;;;9.38;5.32;;;11.80;46.60;;;;;;5069003;28;20033;-87
2023/05/10 04:32:25;;;;;;;8.82;5.20;;;11.90;46.70;;;;;;5068442;28;20025;-85
2023/05/10 04:34:52;;;;;;;13.18;4.80;;;12.00;46.70;;;;;;5099677;28;20392;-85
2023/05/10 04:37:18;;;;;;;8.10;5.20;;;12.10;46.50;;;;;;5088009;28;20030;-85
2023/05/10 04:39:44;;;;;;;11.00;4.82;;;12.20;46.10;;;;;;5103083;28;20072;-86
2023/05/10 04:42:10;;;;;;;12.00;5.00;;;12.20;45.70;;;;;;5082728;28;20046;-86
2023/05/10 04:44:36;;;;;;;8.35;5.10;;;12.30;45.80;;;;;;5096623;28;20024;-86
2023/05/10 04:47:02;;;;;;;12.85;5.50;;;12.30;45.70;;;;;;5103769;28;20024;-86
2023/05/10 04:49:29;;;;;;;7.07;5.07;;;12.40;45.90;;;;;;5091286;28;20019;-89
2023/05/10 04:51:55;;;;;;;12.18;5.35;;;12.50;45.40;;;;;;5084767;28;20081;-86
2023/05/10 04:54:21;;;;;;;12.52;5.70;;;12.60;45.50;;;;;;5104317;28;20043;-87
2023/05/10 04:56:48;;;;;;;13.32;5.40;;;12.70;45.50;;;;;;5103601;28;20020;-87
2023/05/10 04:59:14;;;;;;;14.55;6.32;;;12.90;45.40;;;;;;5088820;28;20024;-84
2023/05/10 05:01:40;;;;;;;5.45;4.50;;;13.10;44.80;;;;;;5113861;28;20131;-83
2023/05/10 05:04:06;;;;;;;13.65;5.38;;;13.30;44.80;;;;;;5102856;28;20041;-88
2023/05/10 05:06:32;;;;;;;8.32;5.05;;;13.40;44.70;;;;;;5105955;28;20630;-84
2023/05/10 05:08:58;;;;;;;14.93;5.60;;;13.30;44.20;;;;;;5100983;28;20031;-85
2023/05/10 05:11:25;;;;;;;8.88;5.00;;;13.40;43.90;;;;;;5105170;28;20049;-81
2023/05/10 05:13:51;;;;;;;6.47;5.00;;;13.50;43.70;;;;;;5106223;28;20078;-82
2023/05/10 05:16:17;;;;;;;6.55;4.57;;;13.60;43.30;;;;;;5109401;28;20255;-82
2023/05/10 05:18:43;;;;;;;13.38;5.10;;;13.60;43.30;;;;;;5102670;28;20081;-85
2023/05/10 05:21:16;;;;;;;10.93;5.30;;;13.90;43.30;;;;;;5091643;28;20028;-82
2023/05/10 05:23:42;;;;;;;11.15;5.38;;;14.10;42.50;;;;;;5101403;28;20396;-82
2023/05/10 05:26:08;;;;;;;8.73;4.40;;;14.40;42.40;;;;;;5108602;28;20077;-81
2023/05/10 05:28:37;;;;;;;10.85;5.05;;;14.80;41.80;;;;;;5083062;28;20488;-80
2023/05/10 05:31:04;;;;;;;15.25;4.85;;;15.30;41.40;;;;;;5097749;28;20035;-80
2023/05/10 05:33:30;;;;;;;11.63;4.97;;;15.70;40.70;;;;;;5077509;28;20515;-82
2023/05/10 05:35:55;;;;;;;11.68;4.82;;;15.90;39.70;;;;;;5095429;28;20020;-81
2023/05/10 05:38:21;;;;;;;12.50;4.47;;;16.10;39.40;;;;;;5095261;28;20024;-82
2023/05/10 05:40:47;;;;;;;12.80;5.03;;;16.10;39.30;;;;;;5095717;28;20013;-82
2023/05/10 05:43:13;;;;;;;12.60;4.75;;;16.10;39.10;;;;;;5094394;28;20024;-81
2023/05/10 05:45:39;;;;;;;7.75;3.88;;;16.10;39.40;;;;;;5094722;28;20020;-81
2023/05/10 05:48:05;;;;;;;8.15;4.32;;;16.20;39.10;;;;;;5108239;28;20476;-82
2023/05/10 05:50:31;;;;;;;14.25;4.43;;;16.20;39.30;;;;;;5078180;28;20020;-82
2023/05/10 05:52:57;;;;;;;11.68;3.90;;;16.30;38.90;;;;;;5081319;28;20087;-81
2023/05/10 05:55:24;;;;;;;7.25;4.43;;;16.50;39.00;;;;;;5095330;28;20031;-83
2023/05/10 05:57:50;;;;;;;8.93;4.70;;;16.40;38.70;;;;;;5091395;28;20056;-82
2023/05/10 06:00:16;;;;;;;6.65;3.63;;;16.50;38.90;;;;;;5100246;28;20048;-81
2023/05/10 06:02:42;;;;;;;11.00;4.35;;;16.60;38.60;;;;;;5101106;28;20026;-82
2023/05/10 06:05:08;;;;;;;6.35;3.70;;;16.70;39.00;;;;;;5096989;28;20047;-82
2023/05/10 06:07:48;;;;;;;9.32;3.45;;;16.70;38.00;;;;;;5113329;27;20479;-82
2023/05/10 06:10:14;;;;;;;10.63;3.67;;;16.70;37.30;;;;;;5099290;28;20394;-82
2023/05/10 06:12:40;;;;;;;11.32;3.53;;;16.60;37.80;;;;;;5090313;28;20052;-82
2023/05/10 06:15:06;;;;;;;8.98;4.00;;;16.60;37.60;;;;;;5089936;28;20797;-81
2023/05/10 06:17:32;;;;;;;8.60;3.72;;;16.70;37.90;;;;;;5089609;28;20016;-82
2023/05/10 06:19:58;;;;;;;7.28;3.55;;;16.90;38.00;;;;;;5088382;28;20027;-82
2023/05/10 06:22:24;;;;;;;11.13;3.95;;;16.90;36.70;;;;;;5089679;28;20056;-80
2023/05/10 06:24:50;;;;;;;7.78;3.17;;;16.80;36.40;;;;;;5089360;28;20111;-83
2023/05/10 06:27:15;;;;;;;5.70;3.28;;;16.80;37.20;;;;;;5089515;28;20131;-83
2023/05/10 06:29:41;;;;;;;11.10;3.25;;;16.80;36.60;;;;;;5103368;28;20481;-83
2023/05/10 06:32:07;;;;;;;5.85;3.60;;;16.80;36.30;;;;;;5077394;28;20448;-83
2023/05/10 06:34:33;;;;;;;8.63;4.00;;;16.90;36.50;;;;;;5088856;28;20024;-81
2023/05/10 06:36:59;;;;;;;7.82;3.42;;;17.00;36.50;;;;;;5090927;28;20393;-81
2023/05/10 06:39:25;;;;;;;6.28;3.22;;;17.10;36.40;;;;;;5090265;28;20031;-83
2023/05/10 06:41:50;;;;;;;8.82;3.63;;;17.10;35.90;;;;;;5098300;28;20043;-82
2023/05/10 06:44:16;;;;;;;7.50;3.35;;;17.10;35.80;;;;;;5089440;28;20040;-82
2023/05/10 06:46:42;;;;;;;10.25;4.07;;;17.20;35.50;;;;;;5087967;28;20028;-82
2023/05/10 06:49:08;;;;;;;7.25;3.63;;;17.20;35.20;;;;;;5089449;28;20031;-83
2023/05/10 06:51:34;;;;;;;12.57;3.58;;;17.20;35.10;;;;;;5089246;28;20056;-82
2023/05/10 06:54:00;;;;;;;7.32;4.00;;;17.20;35.10;;;;;;5089591;28;20028;-82
2023/05/10 06:56:25;;;;;;;6.93;3.38;;;17.50;35.00;;;;;;5089446;28;20389;-83
2023/05/10 06:58:51;;;;;;;9.63;3.45;;;17.70;34.90;;;;;;5090106;28;20032;-81
2023/05/10 07:01:17;;;;;;;6.53;3.15;;;17.90;34.50;;;;;;5090406;28;20016;-84
2023/05/10 07:03:43;;;;;;;7.03;3.33;;;18.20;34.50;;;;;;5098063;28;20024;-83
2023/05/10 07:06:09;;;;;;;5.85;3.15;;;18.60;33.80;;;;;;5105343;28;20070;-82
2023/05/10 07:08:35;;;;;;;5.38;3.63;;;18.90;33.20;;;;;;5089523;28;20021;-83
2023/05/10 07:11:06;;;;;;;7.25;3.13;;;19.10;32.80;;;;;;5089552;28;20028;-81
2023/05/10 07:13:33;;;;;;;6.60;3.22;;;19.30;32.80;;;;;;5092114;28;20040;-83
2023/05/10 07:16:00;;;;;;;5.85;2.80;;;19.80;32.70;;;;;;5087948;28;20024;-83
2023/05/10 07:18:26;;;;;;;6.28;3.60;;;20.10;32.00;;;;;;5072416;28;20076;-83
2023/05/10 07:20:52;;;;;;;7.50;3.17;;;20.20;31.60;;;;;;5078831;28;20020;-83
2023/05/10 07:23:19;;;;;;;9.55;3.53;;;20.30;31.80;;;;;;5075367;28;20136;-82
2023/05/10 07:25:46;;;;;;;13.53;3.97;;;20.40;31.50;;;;;;5074907;28;20119;-83
2023/05/10 07:28:12;;;;;;;;;;;20.60;32.00;;;;;;5075613;28;20442;-82
2023/05/10 07:30:38;;;;;;;31.60;7.05;;;21.00;32.20;;;;;;5064470;28;19951;-83
2023/05/10 07:33:04;;;;;;;7.40;3.35;;;21.10;31.20;;;;;;5069572;28;20060;-82
2023/05/10 07:35:29;;;;;;;4.07;2.75;;;21.50;30.20;;;;;;5077868;28;20025;-82
2023/05/10 07:37:55;;;;;;;5.97;2.53;;;21.70;29.90;;;;;;5081009;28;20060;-83
2023/05/10 07:40:21;;;;;;;7.60;3.08;;;22.10;29.80;;;;;;5074576;28;20017;-84
2023/05/10 07:42:47;;;;;;;6.18;3.03;;;22.10;30.20;;;;;;5074472;28;20031;-83
2023/05/10 07:45:13;;;;;;;8.20;4.63;;;22.30;29.50;;;;;;5074800;28;20065;-83
2023/05/10 07:47:39;;;;;;;7.95;2.65;;;22.60;29.40;;;;;;5084287;28;20029;-83
2023/05/10 07:50:05;;;;;;;4.93;2.58;;;23.20;28.60;;;;;;5073733;28;20078;-83
2023/05/10 07:52:31;;;;;;;5.50;2.72;;;23.80;28.40;;;;;;5076685;28;20024;-83
2023/05/10 07:54:57;;;;;;;3.85;2.35;;;24.30;28.00;;;;;;5073972;28;20025;-81
2023/05/10 07:57:23;;;;;;;5.70;2.63;;;24.90;27.90;;;;;;5075874;28;20023;-83
2023/05/10 07:59:49;;;;;;;6.20;3.20;;;25.40;27.00;;;;;;5076730;28;20028;-83
2023/05/10 08:02:15;;;;;;;3.75;2.65;;;25.60;27.30;;;;;;5076513;28;20044;-84
2023/05/10 08:04:41;;;;;;;3.30;2.15;;;26.30;27.20;;;;;;5083298;28;20025;-82
2023/05/10 08:07:07;;;;;;;6.55;2.38;;;26.90;26.30;;;;;;5073800;28;20057;-84
2023/05/10 08:09:33;;;;;;;6.00;2.58;;;27.20;26.30;;;;;;5073954;28;20590;-82
2023/05/10 08:11:59;;;;;;;3.15;2.00;;;27.80;26.30;;;;;;5074350;28;20029;-82
2023/05/10 08:14:26;;;;;;;5.68;2.20;;;28.30;26.40;;;;;;5076529;28;20046;-83
2023/05/10 08:16:52;;;;;;;3.25;2.55;;;28.60;26.20;;;;;;5075354;28;20039;-83
2023/05/10 08:19:19;;;;;;;5.13;2.92;;;29.50;25.90;;;;;;5073870;28;20481;-82
2023/05/10 08:21:45;;;;;;;3.03;2.08;;;30.20;25.40;;;;;;5079591;28;20033;-84
2023/05/10 08:24:11;;;;;;;4.70;2.17;;;30.40;24.80;;;;;;5073564;28;20036;-85
2023/05/10 08:26:37;;;;;;;4.93;2.20;;;30.40;24.40;;;;;;5074421;28;20381;-84
2023/05/10 08:29:03;;;;;;;3.08;1.92;;;30.50;24.60;;;;;;5073523;28;20024;-84
2023/05/10 08:31:29;;;;;;;5.03;2.08;;;30.70;24.40;;;;;;5073617;28;20461;-84
2023/05/10 08:33:55;;;;;;;4.67;2.30;;;31.50;24.60;;;;;;5072584;28;20103;-84
2023/05/10 08:36:23;;;;;;;7.07;2.10;;;33.20;24.30;;;;;;5085017;28;20511;-85
2023/05/10 08:38:52;;;;;;;3.45;2.83;;;;;;;;;;5076346;28;20017;-84
2023/05/10 08:41:26;;;;;;;4.80;2.10;;;34.40;23.80;;;;;;5091607;28;20047;-85
2023/05/10 08:43:55;;;;;;;6.88;2.13;;;36.50;23.20;;;;;;5061271;28;20441;-83
2023/05/10 08:46:22;;;;;;;4.47;2.28;;;35.80;22.80;;;;;;5073905;28;20430;-83
2023/05/10 08:48:50;;;;;;;3.17;2.17;;;35.10;22.90;;;;;;5072198;28;20108;-84
2023/05/10 08:51:26;;;;;;;6.28;2.38;;;34.70;23.10;;;;;;5076694;28;20025;-84
2023/05/10 08:53:52;;;;;;;5.30;2.45;;;34.80;23.00;;;;;;5075314;28;20032;-84
2023/05/10 08:56:20;;;;;;;5.13;2.75;;;34.20;23.00;;;;;;5062787;28;20033;-84
2023/05/10 08:58:46;;;;;;;8.48;2.83;;;33.20;23.00;;;;;;5070543;28;20024;-84
2023/05/10 09:01:13;;;;;;;;;;;33.10;23.20;;;;;;5075003;28;20024;-83
2023/05/10 09:03:40;;;;;;;4.70;2.33;;;33.80;24.10;;;;;;5074774;28;19904;-85
2023/05/10 09:06:06;;;;;;;;;;;34.80;23.20;;;;;;5084589;28;20028;-83
2023/05/10 09:08:33;;;;;;;8.65;2.15;;;35.80;23.50;;;;;;5087983;28;19959;-84
2023/05/10 09:11:01;;;;;;;3.60;1.98;;;36.40;22.80;;;;;;5084320;28;20480;-85
2023/05/10 09:13:28;;;;;;;6.40;2.30;;;36.30;22.40;;;;;;5090038;28;20085;-84
2023/05/10 09:15:54;;;;;;;3.45;1.77;;;34.40;22.30;;;;;;5090109;28;20067;-83
2023/05/10 09:18:22;;;;;;;2.90;2.00;;;32.90;22.60;;;;;;5090425;28;20020;-83
2023/05/10 09:20:49;;;;;;;3.65;1.85;;;31.00;23.00;;;;;;5088010;28;20033;-84
2023/05/10 09:23:15;;;;;;;6.30;1.90;;;30.70;23.70;;;;;;5087247;28;20017;-86
2023/05/10 09:25:43;;;;;;;7.60;2.63;;;32.20;23.50;;;;;;5079906;28;20032;-84
2023/05/10 09:28:09;;;;;;;4.20;2.15;;;34.00;23.30;;;;;;5081229;28;20041;-84
2023/05/10 09:30:36;;;;;;;5.00;2.08;;;34.20;22.60;;;;;;5074408;28;20017;-82
2023/05/10 09:33:02;;;;;;;5.35;2.38;;;32.30;22.80;;;;;;5073652;28;20440;-84
2023/05/10 09:35:30;;;;;;;6.20;2.33;;;31.10;23.30;;;;;;5072744;28;20016;-83
2023/05/10 09:38:01;;;;;;;5.25;2.55;;;29.80;23.80;;;;;;5072597;28;20056;-83
2023/05/10 09:40:28;;;;;;;3.45;2.28;;;30.10;23.80;;;;;;5058742;28;20099;-86
2023/05/10 09:43:01;;;;;;;4.68;2.03;;;30.90;23.60;;;;;;5072556;28;20474;-84
2023/05/10 09:45:29;;;;;;;4.70;2.30;;;32.10;23.50;;;;;;5085910;28;20676;-85
2023/05/10 09:47:56;;;;;;;4.55;2.42;;;33.50;23.20;;;;;;5079986;28;20035;-84
2023/05/10 09:50:22;;;;;;;6.45;2.58;;;33.80;23.00;;;;;;5072532;28;20024;-84
2023/05/10 09:52:53;;;;;;;5.70;2.80;;;34.90;22.80;;;;;;5073074;28;20108;-85
2023/05/10 09:55:21;;;;;;;8.38;2.97;;;34.20;22.80;;;;;;5075477;28;20032;-84
2023/05/10 09:57:48;;;;;;;8.38;2.60;;;34.00;23.00;;;;;;5072886;28;20046;-85
2023/05/10 10:00:19;;;;;;;4.10;2.63;;;32.30;22.70;;;;;;5059543;28;20025;-82
2023/05/10 10:02:47;;;;;;;4.35;2.67;;;29.80;23.50;;;;;;5089162;28;20072;-83
2023/05/10 10:05:13;;;;;;;5.40;2.42;;;28.10;24.30;;;;;;5078942;28;20020;-83
2023/05/10 10:07:39;;;;;;;5.27;2.80;;;26.70;24.70;;;;;;5072755;28;20049;-82
2023/05/10 10:10:11;;;;;;;4.75;2.42;;;25.50;25.40;;;;;;5085257;28;20043;-83
2023/05/10 10:12:37;;;;;;;4.78;3.63;;;;;;;;;;5071853;28;20048;-83
2023/05/10 10:15:04;;;;;;;8.43;4.55;;;24.30;26.00;;;;;;5088030;28;20025;-85
2023/05/10 10:17:31;;;;;;;6.50;3.20;;;22.80;27.20;;;;;;5070678;28;20123;-84
2023/05/10 10:19:58;;;;;;;3.70;3.20;;;22.40;27.70;;;;;;5072662;28;20061;-82
2023/05/10 10:22:24;;;;;;;7.88;2.90;;;22.90;27.90;;;;;;5073131;28;20040;-81
2023/05/10 10:24:50;;;;;;;10.55;4.35;;;23.70;27.40;;;;;;5072567;28;20038;-84
2023/05/10 10:27:23;;;;;;;3.67;3.10;;;24.00;27.30;;;;;;5075114;28;20016;-83
2023/05/10 10:29:58;;;;;;;5.47;3.35;;;23.90;26.90;;;;;;5069765;28;20036;-81
2023/05/10 10:32:48;;;;;;;4.85;3.03;;;23.60;27.10;;;;;;5063991;28;20492;-84
2023/05/10 10:35:15;;;;;;;3.08;2.45;;;23.40;27.50;;;;;;5077506;28;20146;-82
2023/05/10 10:37:44;;;;;;;6.90;3.50;;;23.20;27.40;;;;;;5077007;28;20063;-84
2023/05/10 10:40:27;;;;;;;4.82;3.05;;;22.70;27.70;;;;;;5094580;28;20039;-83
2023/05/10 10:42:53;;;;;;;5.43;2.80;;;22.50;28.00;;;;;;5078048;28;20031;-83
2023/05/10 10:45:21;;;;;;;9.05;3.28;;;22.10;28.10;;;;;;5077307;28;20378;-83
2023/05/10 10:47:47;;;;;;;4.22;2.80;;;21.80;28.50;;;;;;5075620;28;20021;-81
2023/05/10 10:50:13;;;;;;;5.78;2.80;;;21.80;28.70;;;;;;5076181;28;20153;-83
2023/05/10 10:52:43;;;;;;;4.70;2.45;;;21.60;28.60;;;;;;5074840;28;20017;-84
2023/05/10 10:55:22;;;;;;;7.18;3.67;;;21.40;28.90;;;;;;5075772;28;20111;-84
2023/05/10 10:57:51;;;;;;;3.60;2.72;;;21.10;29.00;;;;;;5078101;28;20028;-82
2023/05/10 11:00:25;;;;;;;6.65;3.33;;;20.60;29.40;;;;;;5076686;28;20020;-85
2023/05/10 11:03:06;;;;;;;4.30;2.75;;;20.20;29.90;;;;;;5076082;28;20128;-84
2023/05/10 11:05:41;;;;;;;5.90;3.28;;;19.90;30.40;;;;;;5078949;28;20082;-83
2023/05/10 11:08:29;;;;;;;6.28;2.85;;;19.80;30.30;;;;;;5091496;28;20032;-82
2023/05/10 11:11:00;;;;;;;6.35;3.50;;;19.70;30.40;;;;;;5078151;28;20025;-82
2023/05/10 11:13:42;;;;;;;4.20;2.80;;;19.70;30.50;;;;;;5077464;28;20024;-84
2023/05/10 11:16:16;;;;;;;7.65;5.57;;;19.70;30.30;;;;;;5075520;28;20021;-82
2023/05/10 11:18:59;;;;;;;6.28;2.97;;;19.80;30.50;;;;;;5076241;28;20039;-84
2023/05/10 11:21:25;;;;;;;4.82;2.95;;;19.90;30.30;;;;;;5076225;28;20017;-85
2023/05/10 11:23:56;;;;;;;5.22;3.00;;;19.80;30.30;;;;;;5075415;28;20032;-83
2023/05/10 11:26:30;;;;;;;5.05;2.55;;;19.70;30.60;;;;;;5076571;28;20042;-84
2023/05/10 11:28:56;;;;;;;7.55;3.05;;;19.70;30.40;;;;;;5080028;28;20028;-82
2023/05/10 11:31:22;;;;;;;5.85;3.08;;;19.60;30.30;;;;;;5065612;28;20021;-84
2023/05/10 11:33:52;;;;;;;6.88;3.63;;;19.80;30.50;;;;;;5077624;28;20025;-83
2023/05/10 11:36:21;;;;;;;7.40;2.67;;;20.00;30.50;;;;;;5090383;28;20043;-83
2023/05/10 11:38:48;;;;;;;4.25;2.53;;;20.00;31.00;;;;;;5082148;28;20020;-84
2023/05/10 11:41:17;;;;;;;3.60;2.43;;;20.10;30.40;;;;;;5082525;28;20062;-85
2023/05/10 11:43:45;;;;;;;4.75;2.83;;;19.90;30.40;;;;;;5073920;28;20622;-83
2023/05/10 11:46:13;;;;;;;7.03;2.83;;;19.60;30.90;;;;;;5082028;28;20032;-85
2023/05/10 11:48:40;;;;;;;5.00;2.50;;;19.30;31.00;;;;;;5076113;28;20462;-82
2023/05/10 11:51:07;;;;;;;7.35;3.20;;;19.20;31.20;;;;;;5074597;28;20427;-84
2023/05/10 11:53:34;;;;;;;6.30;3.05;;;19.20;31.20;;;;;;5073828;28;20052;-82
2023/05/10 11:56:06;;;;;;;3.20;2.38;;;19.10;31.20;;;;;;5075201;28;20025;-81
2023/05/10 11:58:33;;;;;;;4.05;2.55;;;19.10;31.50;;;;;;5076372;28;20032;-84
2023/05/10 12:01:00;;;;;;;3.00;2.25;;;19.00;31.60;;;;;;5074894;28;20021;-83
2023/05/10 12:03:27;;;;;;;9.90;3.30;;;19.10;31.80;;;;;;5080504;28;20076;-81
2023/05/10 12:05:54;;;;;;;4.22;2.97;;;19.20;32.00;;;;;;5075250;28;20040;-83
2023/05/10 12:08:26;;;;;;;5.15;2.75;;;19.20;31.80;;;;;;5072749;28;20489;-82
2023/05/10 12:10:53;;;;;;;3.28;2.38;;;19.30;32.10;;;;;;5073994;28;20025;-82
2023/05/10 12:13:20;;;;;;;5.78;3.20;;;19.30;31.60;;;;;;5072970;28;20030;-81
2023/05/10 12:15:46;;;;;;;;;;;19.30;31.90;;;;;;5074377;28;20021;-82
2023/05/10 12:18:13;;;;;;;5.13;2.70;;;19.30;31.70;;;;;;5078446;28;19916;-85
2023/05/10 12:20:40;;;;;;;6.00;2.92;;;19.20;31.60;;;;;;5079376;28;20028;-82
2023/05/10 12:23:09;;;;;;;6.63;2.95;;;19.20;31.70;;;;;;5076554;28;20051;-82
2023/05/10 12:25:37;;;;;;;5.40;3.42;;;19.10;31.90;;;;;;5074501;28;20074;-83
2023/05/10 12:28:05;;;;;;;5.75;3.00;;;19.30;32.30;;;;;;5074614;28;20055;-83
2023/05/10 12:30:33;;;;;;;8.00;3.00;;;19.30;32.00;;;;;;5065420;28;20028;-82
2023/05/10 12:33:12;;;;;;;5.50;3.17;;;19.30;32.00;;;;;;5084625;28;20111;-82
2023/05/10 12:35:47;;;;;;;5.10;2.90;;;19.50;32.20;;;;;;5066035;28;20380;-83
2023/05/10 12:38:30;;;;;;;6.97;2.88;;;19.50;32.20;;;;;;5076584;28;20025;-81
2023/05/10 12:41:01;;;;;;;7.35;2.28;;;19.50;31.90;;;;;;5077500;28;20021;-81
2023/05/10 12:43:27;;;;;;;5.50;2.72;;;19.50;32.00;;;;;;5076126;28;20155;-82
2023/05/10 12:45:53;;;;;;;4.50;2.30;;;19.40;32.00;;;;;;5072977;28;20053;-83
2023/05/10 12:48:19;;;;;;;7.80;2.63;;;19.30;32.50;;;;;;5083383;28;20063;-82
2023/05/10 12:50:45;;;;;;;6.13;2.90;;;19.20;32.10;;;;;;5074134;28;20066;-81
2023/05/10 12:53:13;;;;;;;7.00;2.88;;;18.90;32.80;;;;;;5074490;28;20024;-83